createdAt,value
2019-03-15T00:02:34.260Z,74.96
2019-03-15T00:07:36.442Z,74.53
2019-03-15T00:12:38.612Z,74.48
2019-03-15T00:17:40.706Z,74.94
2019-03-15T00:22:42.908Z,75.03
2019-03-15T00:27:45.054Z,75.68
2019-03-15T00:32:47.140Z,75.53
2019-03-15T00:37:49.323Z,75.11
2019-03-15T00:42:51.420Z,75.62
2019-03-15T00:47:53.501Z,75.98
2019-03-15T00:52:55.507Z,75.96
2019-03-15T00:57:57.604Z,75.90
2019-03-15T01:02:59.754Z,76.04
2019-03-15T01:08:01.805Z,76.10
2019-03-15T01:13:03.873Z,76.40
2019-03-15T01:18:06.296Z,75.66
2019-03-15T01:23:08.492Z,75.57
2019-03-15T01:28:10.539Z,75.95
2019-03-15T01:33:12.585Z,76.10
2019-03-15T01:38:14.769Z,76.37
2019-03-15T01:43:16.951Z,75.83
2019-03-15T01:48:18.988Z,76.32
2019-03-15T01:53:21.197Z,75.71
2019-03-15T01:58:23.287Z,75.31
2019-03-15T02:03:26.005Z,75.44
2019-03-15T02:08:28.067Z,74.98
2019-03-15T02:13:30.178Z,73.91
2019-03-15T02:18:32.324Z,74.79
2019-03-15T02:23:34.447Z,74.28
2019-03-15T02:28:36.857Z,74.78
2019-03-15T02:33:38.938Z,74.66
2019-03-15T02:38:41.099Z,74.80
2019-03-15T02:43:43.188Z,75.32
2019-03-15T02:48:45.313Z,75.25
2019-03-15T02:53:47.495Z,75.29
2019-03-15T02:58:49.714Z,75.60
2019-03-15T03:03:51.758Z,76.10
2019-03-15T03:08:53.823Z,75.87
2019-03-15T03:13:55.936Z,75.83
2019-03-15T03:18:58.010Z,76.69
2019-03-15T03:24:00.091Z,76.36
2019-03-15T03:29:02.201Z,76.53
2019-03-15T03:34:04.318Z,76.87
2019-03-15T03:39:06.777Z,75.97
2019-03-15T03:44:08.870Z,76.25
2019-03-15T03:49:11.278Z,76.80
2019-03-15T03:54:13.471Z,76.61
2019-03-15T03:59:15.560Z,78.06
2019-03-15T04:04:17.979Z,78.58
2019-03-15T04:09:20.055Z,78.61
2019-03-15T04:14:22.134Z,79.07
2019-03-15T04:19:24.767Z,79.48
2019-03-15T04:24:27.009Z,79.75
2019-03-15T04:29:29.129Z,79.64
2019-03-15T04:34:31.166Z,79.60
2019-03-15T04:39:33.576Z,79.87
2019-03-15T04:44:35.945Z,79.85
2019-03-15T04:49:37.998Z,80.02
2019-03-15T04:54:40.022Z,79.83
2019-03-15T04:59:42.124Z,79.84
2019-03-15T05:04:44.185Z,80.03
2019-03-15T05:09:46.658Z,79.90
2019-03-15T05:14:48.798Z,80.14
2019-03-15T05:19:50.924Z,79.50
2019-03-15T05:24:53.124Z,79.46
2019-03-15T05:29:55.296Z,79.46
2019-03-15T05:34:57.451Z,79.03
2019-03-15T05:39:59.575Z,79.04
2019-03-15T05:45:02.108Z,78.80
2019-03-15T05:50:05.543Z,79.16
2019-03-15T05:55:12.078Z,79.75
2019-03-15T06:00:14.345Z,80.58
2019-03-15T06:05:16.383Z,81.35
2019-03-15T06:10:18.526Z,82.03
2019-03-15T06:15:20.644Z,82.65
2019-03-15T06:20:22.939Z,83.00
2019-03-15T06:25:25.268Z,83.78
2019-03-15T06:30:27.409Z,84.37
2019-03-15T06:35:29.516Z,85.01
2019-03-15T06:40:32.373Z,85.51
2019-03-15T06:45:34.935Z,85.24
2019-03-15T06:50:37.027Z,85.34
2019-03-15T06:55:39.064Z,85.93
2019-03-15T07:00:41.482Z,85.19
2019-03-15T07:05:43.600Z,85.31
2019-03-15T07:10:45.605Z,86.11
2019-03-15T07:15:47.654Z,86.24
2019-03-15T07:20:49.777Z,86.48
2019-03-15T07:25:52.094Z,86.98
2019-03-15T07:30:54.288Z,86.85
2019-03-15T07:35:56.638Z,87.22
2019-03-15T07:40:58.799Z,87.18
2019-03-15T07:46:00.958Z,87.85
2019-03-15T07:51:03.261Z,87.80
2019-03-15T07:56:05.334Z,88.35
2019-03-15T08:01:07.433Z,89.34
2019-03-15T08:06:09.465Z,89.24
2019-03-15T08:11:11.639Z,90.20
2019-03-15T08:16:13.708Z,90.73
2019-03-15T08:21:15.745Z,91.21
2019-03-15T08:26:17.929Z,91.23
2019-03-15T08:31:23.111Z,91.53
2019-03-15T08:36:23.950Z,92.46
2019-03-15T08:41:26.006Z,91.94
2019-03-15T08:46:28.068Z,91.97
2019-03-15T08:51:30.203Z,92.20
2019-03-15T08:56:32.345Z,92.00
2019-03-15T09:01:34.404Z,92.17
2019-03-15T09:06:36.513Z,92.51
2019-03-15T09:11:38.620Z,92.52
2019-03-15T09:16:40.654Z,92.59
2019-03-15T09:21:42.829Z,92.38
2019-03-15T09:26:44.964Z,92.67
2019-03-15T09:31:48.434Z,92.75
2019-03-15T09:36:51.328Z,92.68
2019-03-15T09:41:53.924Z,92.88
2019-03-15T09:46:55.901Z,92.46
2019-03-15T09:51:58.101Z,92.64
2019-03-15T09:57:00.110Z,92.61
2019-03-15T10:02:02.715Z,92.92
2019-03-15T10:07:05.127Z,93.51
2019-03-15T10:12:07.217Z,93.01
2019-03-15T10:17:09.296Z,93.02
2019-03-15T10:22:11.342Z,92.98
2019-03-15T10:27:13.750Z,93.20
2019-03-15T10:32:16.056Z,93.05
2019-03-15T10:37:18.109Z,93.51
2019-03-15T10:42:20.193Z,93.77
2019-03-15T10:47:22.259Z,93.99
2019-03-15T10:52:24.346Z,93.89
2019-03-15T10:57:26.358Z,93.66
2019-03-15T11:02:28.384Z,93.33
2019-03-15T11:07:30.460Z,93.43
2019-03-15T11:12:32.494Z,93.35
2019-03-15T11:17:34.583Z,93.69
2019-03-15T11:22:36.658Z,93.62
2019-03-15T11:27:38.745Z,93.42
2019-03-15T11:32:40.782Z,93.33
2019-03-15T11:37:43.009Z,92.95
2019-03-15T11:42:45.508Z,92.84
2019-03-15T11:48:02.933Z,92.53
2019-03-15T11:52:51.617Z,92.67
2019-03-15T11:57:53.664Z,92.41
2019-03-15T12:02:55.790Z,92.29
2019-03-15T12:07:57.871Z,92.02
2019-03-15T12:12:59.987Z,91.97
2019-03-15T12:18:02.103Z,92.04
2019-03-15T12:23:04.195Z,92.04
2019-03-15T12:28:06.697Z,92.25
2019-03-15T12:33:08.795Z,91.65
2019-03-15T12:38:11.186Z,89.58
2019-03-15T12:43:13.322Z,87.88
2019-03-15T12:48:15.433Z,86.07
2019-03-15T12:53:17.505Z,86.07
2019-03-15T12:58:19.960Z,83.29
2019-03-15T13:03:22.043Z,83.29
2019-03-15T13:08:24.092Z,82.97
2019-03-15T13:13:26.152Z,82.03
2019-03-15T13:18:28.233Z,81.48
2019-03-15T13:23:30.340Z,79.42
2019-03-15T13:28:32.537Z,79.91
2019-03-15T13:33:34.613Z,79.08
2019-03-15T13:38:36.800Z,78.24
2019-03-15T13:43:38.831Z,77.56
2019-03-15T13:48:40.935Z,77.29
2019-03-15T13:53:43.009Z,77.58
2019-03-15T13:58:56.735Z,75.30
2019-03-15T14:03:49.353Z,75.26
2019-03-15T14:08:51.537Z,75.83
2019-03-15T14:13:53.597Z,75.00
2019-03-15T14:18:55.720Z,75.93
2019-03-15T14:23:58.112Z,73.38
2019-03-15T14:29:00.248Z,74.90
2019-03-15T14:34:02.280Z,75.22
2019-03-15T14:39:05.536Z,75.51
2019-03-15T14:44:07.698Z,74.81
2019-03-15T14:49:09.737Z,75.49
2019-03-15T14:54:11.795Z,74.01
2019-03-15T14:59:13.973Z,74.56
2019-03-15T15:04:16.348Z,74.52
2019-03-15T15:09:18.636Z,75.04
2019-03-15T15:14:20.905Z,74.03
2019-03-15T15:19:23.025Z,75.17
2019-03-15T15:24:25.050Z,74.79
2019-03-15T15:29:27.140Z,75.59
2019-03-15T15:34:29.173Z,75.34
2019-03-15T15:39:31.327Z,75.36
2019-03-15T15:44:33.422Z,76.60
2019-03-15T15:49:35.496Z,76.34
2019-03-15T15:54:37.639Z,76.83
2019-03-15T15:59:39.687Z,76.87
2019-03-15T16:04:42.040Z,76.42
2019-03-15T16:09:44.125Z,76.19
2019-03-15T16:14:46.150Z,76.35
2019-03-15T16:19:48.202Z,76.45
2019-03-15T16:24:50.274Z,76.54
2019-03-15T16:29:52.456Z,75.99
2019-03-15T16:34:54.540Z,76.31
2019-03-15T16:39:56.639Z,77.07
2019-03-15T16:44:58.776Z,76.23
2019-03-15T16:50:00.834Z,76.64
2019-03-15T16:55:03.317Z,76.47
2019-03-15T17:00:06.366Z,76.29
2019-03-15T17:05:09.064Z,76.84
2019-03-15T17:10:11.254Z,76.99
2019-03-15T17:15:13.370Z,77.19
2019-03-15T17:20:15.628Z,77.18
2019-03-15T17:25:17.689Z,77.24
2019-03-15T17:30:19.848Z,77.56
2019-03-15T17:35:21.934Z,78.04
2019-03-15T17:40:24.315Z,78.89
2019-03-15T17:45:27.301Z,78.89
2019-03-15T17:50:29.507Z,78.85
2019-03-15T17:55:31.516Z,78.82
2019-03-15T18:00:39.693Z,78.60
2019-03-15T18:05:41.907Z,78.40
2019-03-15T18:10:44.040Z,77.77
2019-03-15T18:15:46.151Z,78.02
2019-03-15T18:20:48.202Z,78.01
2019-03-15T18:25:50.617Z,78.19
2019-03-15T18:30:53.102Z,78.29
2019-03-15T18:35:55.148Z,79.15
2019-03-15T18:40:57.232Z,80.17
2019-03-15T18:45:59.290Z,80.72
2019-03-15T18:51:01.404Z,80.52
2019-03-15T18:56:03.497Z,80.86
2019-03-15T19:01:05.585Z,81.02
2019-03-15T19:06:11.069Z,81.34
2019-03-15T19:11:14.855Z,82.16
2019-03-15T19:16:20.423Z,82.30
2019-03-15T19:21:24.368Z,82.67
2019-03-15T19:26:31.459Z,82.48
2019-03-15T19:31:35.237Z,82.74
2019-03-15T19:36:39.580Z,82.24
2019-03-15T19:41:41.826Z,82.45
2019-03-15T19:46:44.375Z,82.45
2019-03-15T19:51:46.676Z,82.32
2019-03-15T19:56:48.802Z,81.66
2019-03-15T20:01:51.104Z,81.72
2019-03-15T20:06:53.501Z,81.06
2019-03-15T20:11:55.604Z,81.31
2019-03-15T20:16:57.654Z,80.64
2019-03-15T20:21:59.812Z,80.83
2019-03-15T20:27:01.935Z,80.26
2019-03-15T20:32:04.632Z,80.66
2019-03-15T20:37:06.760Z,80.66
2019-03-15T20:42:09.182Z,80.11
2019-03-15T20:47:11.343Z,80.11
2019-03-15T20:52:13.535Z,80.32
2019-03-15T20:57:15.637Z,79.83
2019-03-15T21:02:17.971Z,79.87
2019-03-15T21:07:20.331Z,79.36
2019-03-15T21:12:22.475Z,79.45
2019-03-15T21:17:24.803Z,79.72
2019-03-15T21:22:26.998Z,79.97
2019-03-15T21:27:31.560Z,80.04
2019-03-15T21:32:40.429Z,78.97
2019-03-15T21:37:46.419Z,78.88
2019-03-15T21:42:48.638Z,78.94
2019-03-15T21:47:51.109Z,79.02
2019-03-15T21:52:53.257Z,79.12
2019-03-15T21:57:55.304Z,78.73
2019-03-15T22:02:57.396Z,79.26
2019-03-15T22:07:59.861Z,78.95
2019-03-15T22:13:02.086Z,78.91
2019-03-15T22:18:04.336Z,79.83
2019-03-15T22:23:06.750Z,80.05
2019-03-15T22:28:09.080Z,81.36
2019-03-15T22:33:11.508Z,84.68
2019-03-15T22:38:25.654Z,85.08
2019-03-15T22:43:17.975Z,85.08
2019-03-15T22:48:20.131Z,84.29
2019-03-15T22:53:23.650Z,85.02
2019-03-15T22:58:26.565Z,85.85
2019-03-15T23:03:29.051Z,85.85
2019-03-15T23:08:31.121Z,86.72
2019-03-15T23:13:33.259Z,89.03
2019-03-15T23:18:35.477Z,89.03
2019-03-15T23:23:37.555Z,89.07
2019-03-15T23:28:42.378Z,89.32
2019-03-15T23:33:44.447Z,89.41
2019-03-15T23:38:46.945Z,89.80
2019-03-15T23:43:49.011Z,89.64
2019-03-15T23:48:51.193Z,89.36
2019-03-15T23:53:53.832Z,89.16
2019-03-15T23:58:55.911Z,89.57
